Time;durP1;ratioP1;P1;durP2;ratioP2;P2;SDS_P1;SDS_P2;PMS_P1;PMS_P2;Temp;Humidity;BMP_temperature;BMP_pressure;BME280_temperature;BME280_humidity;BME280_pressure;Samples;Min_cycle;Max_cycle;Signal;HPM_P1;HPM_P2
2023/03/14 00:00:08;;;;;;;3.53;1.90;;;;;;;;;;1021873;28;20050;-81
2023/03/14 00:00:39;;;;;;;4.25;1.85;;;;;;;;;;1021232;29;20044;-80
2023/03/14 00:01:11;;;;;;;5.18;1.95;;;;;;;;;;1023418;28;20027;-81
2023/03/14 00:01:44;;;;;;;3.08;1.70;;;;;;;;;;1026476;28;20007;-82
2023/03/14 00:02:15;;;;;;;4.85;2.20;;;;;;;;;;1026270;28;20015;-81
2023/03/14 00:02:46;;;;;;;3.67;1.83;;;;;;;;;;1022753;28;20027;-82
2023/03/14 00:03:17;;;;;;;4.95;2.00;;;;;;;;;;1022747;29;21060;-81
2023/03/14 00:03:48;;;;;;;3.95;2.40;;;;;;;;;;1023139;28;20106;-81
2023/03/14 00:04:19;;;;;;;5.68;2.15;;;;;;;;;;1026661;28;20055;-82
2023/03/14 00:04:54;;;;;;;4.15;1.92;;;;;;;;;;1026446;28;20019;-82
2023/03/14 00:05:25;;;;;;;3.38;1.80;;;;;;;;;;1026888;28;20026;-81
2023/03/14 00:05:56;;;;;;;6.25;2.08;;;;;;;;;;1026178;28;20062;-81
2023/03/14 00:06:27;;;;;;;3.88;1.92;;;;;;;;;;1023683;28;20074;-80
2023/03/14 00:06:58;;;;;;;3.13;1.70;;;;;;;;;;1023117;28;20012;-80
2023/03/14 00:07:33;;;;;;;5.57;2.08;;;;;;;;;;1026827;28;20019;-81
2023/03/14 00:08:04;;;;;;;4.57;2.05;;;;;;;;;;1026372;28;20793;-81
2023/03/14 00:08:35;;;;;;;3.60;1.83;;;;;;;;;;1027015;28;20026;-80
2023/03/14 00:09:06;;;;;;;4.72;1.40;;;;;;;;;;1026330;28;20023;-81
2023/03/14 00:09:38;;;;;;;1.98;1.40;;;;;;;;;;1026743;28;20018;-80
2023/03/14 00:10:10;;;;;;;3.95;1.63;;;;;;;;;;1022000;29;20024;-81
2023/03/14 00:10:41;;;;;;;3.97;2.08;;;;;;;;;;1019407;29;20407;-82
2023/03/14 00:11:17;;;;;;;3.95;1.60;;;;;;;;;;1022369;29;20030;-80
2023/03/14 00:11:48;;;;;;;3.03;1.45;;;;;;;;;;1024252;28;20023;-81
2023/03/14 00:12:19;;;;;;;5.10;1.80;;;;;;;;;;1026546;28;20039;-81
2023/03/14 00:12:50;;;;;;;3.50;1.42;;;;;;;;;;1026089;28;20423;-81
2023/03/14 00:13:21;;;;;;;3.97;2.00;;;;;;;;;;1022486;29;20547;-81
2023/03/14 00:13:52;;;;;;;5.10;2.10;;;;;;;;;;1026577;28;20030;-81
2023/03/14 00:14:23;;;;;;;4.72;1.73;;;;;;;;;;1026798;28;20682;-80
2023/03/14 00:14:54;;;;;;;3.25;1.60;;;;;;;;;;1026562;28;20465;-81
2023/03/14 00:15:25;;;;;;;3.27;1.73;;;;;;;;;;1026499;28;20438;-80
2023/03/14 00:16:01;;;;;;;3.80;1.60;;;;;;;;;;1027003;28;20273;-81
2023/03/14 00:16:32;;;;;;;4.13;1.90;;;;;;;;;;1022888;29;20353;-81
2023/03/14 00:17:03;;;;;;;4.20;1.80;;;;;;;;;;1023154;29;20027;-80
2023/03/14 00:17:35;;;;;;;3.10;1.80;;;;;;;;;;1026432;28;20078;-80
2023/03/14 00:18:06;;;;;;;3.97;1.80;;;;;;;;;;1022841;29;20027;-80
2023/03/14 00:18:38;;;;;;;4.70;2.13;;;;;;;;;;1022590;29;20024;-80
2023/03/14 00:19:09;;;;;;;4.88;1.92;;;;;;;;;;1023128;28;20268;-82
2023/03/14 00:19:40;;;;;;;3.70;1.90;;;;;;;;;;1022820;29;20095;-82
2023/03/14 00:20:11;;;;;;;4.93;2.10;;;;;;;;;;1023340;28;20027;-82
2023/03/14 00:20:42;;;;;;;5.35;1.85;;;;;;;;;;1024489;28;20042;-82
2023/03/14 00:21:13;;;;;;;5.30;2.47;;;;;;;;;;1020720;29;20024;-82
2023/03/14 00:21:44;;;;;;;3.97;1.95;;;;;;;;;;1022481;28;20419;-81
2023/03/14 00:22:15;;;;;;;3.57;1.90;;;;;;;;;;1026927;28;20513;-79
2023/03/14 00:22:46;;;;;;;6.03;1.80;;;;;;;;;;1025813;28;20262;-81
2023/03/14 00:23:17;;;;;;;4.38;1.88;;;;;;;;;;1022705;29;20314;-81
2023/03/14 00:23:48;;;;;;;4.47;1.90;;;;;;;;;;1022810;29;20063;-82
2023/03/14 00:24:19;;;;;;;3.42;1.60;;;;;;;;;;1022978;28;20741;-80
2023/03/14 00:24:51;;;;;;;4.93;2.08;;;;;;;;;;1026673;28;20032;-80
2023/03/14 00:25:21;;;;;;;3.45;1.85;;;;;;;;;;1026508;28;20023;-80
2023/03/14 00:25:52;;;;;;;3.67;2.22;;;;;;;;;;1022751;28;20042;-82
2023/03/14 00:26:23;;;;;;;2.40;1.45;;;;;;;;;;1018806;29;20693;-81
2023/03/14 00:26:54;;;;;;;5.40;1.83;;;;;;;;;;1018804;29;20124;-81
2023/03/14 00:27:25;;;;;;;5.10;1.70;;;;;;;;;;1015600;29;20459;-78
2023/03/14 00:27:56;;;;;;;5.25;1.88;;;;;;;;;;1018618;29;20028;-80
2023/03/14 00:28:28;;;;;;;4.73;2.07;;;;;;;;;;1014552;29;20055;-81
2023/03/14 00:28:59;;;;;;;3.72;1.58;;;;;;;;;;1019079;29;20271;-81
2023/03/14 00:29:30;;;;;;;5.10;1.65;;;;;;;;;;1022264;29;20024;-80
2023/03/14 00:30:01;;;;;;;3.35;1.50;;;;;;;;;;1023356;28;20190;-81
2023/03/14 00:30:32;;;;;;;4.15;1.65;;;;;;;;;;1022665;28;20039;-81
2023/03/14 00:31:04;;;;;;;2.90;1.57;;;;;;;;;;1024961;28;20020;-81
2023/03/14 00:31:35;;;;;;;4.53;1.58;;;;;;;;;;1026735;28;20281;-80
2023/03/14 00:32:06;;;;;;;4.35;1.50;;;;;;;;;;1026439;28;20023;-83
2023/03/14 00:32:37;;;;;;;4.67;1.77;;;;;;;;;;1022820;29;20023;-80
2023/03/14 00:33:08;;;;;;;3.22;1.65;;;;;;;;;;1023114;29;20274;-81
2023/03/14 00:33:39;;;;;;;4.13;1.77;;;;;;;;;;1022361;29;20027;-81
2023/03/14 00:34:10;;;;;;;3.65;1.65;;;;;;;;;;1023066;28;20262;-81
2023/03/14 00:34:41;;;;;;;4.70;1.53;;;;;;;;;;1026230;28;20465;-82
2023/03/14 00:35:12;;;;;;;3.53;1.52;;;;;;;;;;1026442;28;20273;-80
2023/03/14 00:35:43;;;;;;;2.97;1.50;;;;;;;;;;1026455;28;20030;-81
2023/03/14 00:36:16;;;;;;;3.05;1.58;;;;;;;;;;1026598;28;20027;-80
2023/03/14 00:36:47;;;;;;;2.72;1.33;;;;;;;;;;1026342;28;20023;-80
2023/03/14 00:37:18;;;;;;;4.80;2.00;;;;;;;;;;1022364;29;20032;-80
2023/03/14 00:37:49;;;;;;;2.88;1.40;;;;;;;;;;1018777;29;20539;-80
2023/03/14 00:38:20;;;;;;;2.20;1.55;;;;;;;;;;1019140;29;20420;-80
2023/03/14 00:38:52;;;;;;;2.78;1.60;;;;;;;;;;1015129;29;20571;-80
2023/03/14 00:39:23;;;;;;;4.47;1.70;;;;;;;;;;1018363;29;20035;-80
2023/03/14 00:39:54;;;;;;;3.17;1.50;;;;;;;;;;1018420;29;20031;-81
2023/03/14 00:40:25;;;;;;;4.43;1.93;;;;;;;;;;1019442;29;20368;-81
2023/03/14 00:40:56;;;;;;;3.30;1.77;;;;;;;;;;1023156;28;20334;-80
2023/03/14 00:41:27;;;;;;;3.17;1.53;;;;;;;;;;1026572;28;20602;-81
2023/03/14 00:41:58;;;;;;;4.28;1.65;;;;;;;;;;1026530;28;20327;-81
2023/03/14 00:42:29;;;;;;;4.43;1.58;;;;;;;;;;1022823;29;20035;-80
2023/03/14 00:43:00;;;;;;;4.30;1.77;;;;;;;;;;1022521;29;20031;-81
2023/03/14 00:43:31;;;;;;;2.33;1.53;;;;;;;;;;1023424;29;20047;-80
2023/03/14 00:44:02;;;;;;;4.10;1.85;;;;;;;;;;1019122;29;20290;-80
2023/03/14 00:44:33;;;;;;;3.75;1.55;;;;;;;;;;1023372;29;20027;-81
2023/03/14 00:45:04;;;;;;;4.00;1.80;;;;;;;;;;1018767;29;20066;-81
2023/03/14 00:45:35;;;;;;;3.35;1.40;;;;;;;;;;1019477;29;20683;-80
2023/03/14 00:46:07;;;;;;;3.42;1.58;;;;;;;;;;1022822;28;20411;-81
2023/03/14 00:46:38;;;;;;;2.38;1.10;;;;;;;;;;1019140;29;20040;-82
2023/03/14 00:47:09;;;;;;;3.80;1.60;;;;;;;;;;1022701;29;20114;-81
2023/03/14 00:47:40;;;;;;;5.70;1.92;;;;;;;;;;1019216;29;20035;-81
2023/03/14 00:48:11;;;;;;;3.70;1.73;;;;;;;;;;1018585;29;20028;-81
2023/03/14 00:48:42;;;;;;;4.18;1.70;;;;;;;;;;1017926;29;20032;-81
2023/03/14 00:49:13;;;;;;;3.65;1.73;;;;;;;;;;1014835;29;20028;-82
2023/03/14 00:49:44;;;;;;;2.70;1.50;;;;;;;;;;1017971;29;20031;-82
2023/03/14 00:50:15;;;;;;;3.25;1.88;;;;;;;;;;1022579;29;20102;-82
2023/03/14 00:50:46;;;;;;;4.53;1.75;;;;;;;;;;1023383;29;20031;-81
2023/03/14 00:51:17;;;;;;;4.15;1.65;;;;;;;;;;1026460;28;20082;-82
2023/03/14 00:51:48;;;;;;;5.00;1.67;;;;;;;;;;1026416;28;20054;-82
2023/03/14 00:52:19;;;;;;;3.90;1.35;;;;;;;;;;1026801;28;20022;-81
2023/03/14 00:52:50;;;;;;;5.60;1.65;;;;;;;;;;1026586;28;20053;-81
2023/03/14 00:53:21;;;;;;;2.10;1.48;;;;;;;;;;1026245;28;20022;-81
2023/03/14 00:53:52;;;;;;;3.30;1.40;;;;;;;;;;1022525;29;20019;-81
2023/03/14 00:54:23;;;;;;;3.92;1.77;;;;;;;;;;1022241;29;20398;-81
2023/03/14 00:54:54;;;;;;;3.92;1.58;;;;;;;;;;1020109;29;20587;-80
2023/03/14 00:55:25;;;;;;;3.58;1.55;;;;;;;;;;1022408;29;20030;-81
2023/03/14 00:55:56;;;;;;;3.28;1.60;;;;;;;;;;1023019;29;20030;-81
2023/03/14 00:56:27;;;;;;;2.90;1.60;;;;;;;;;;1017321;29;20048;-80
2023/03/14 00:56:58;;;;;;;4.22;1.77;;;;;;;;;;1019094;29;20106;-80
2023/03/14 00:57:29;;;;;;;3.72;1.60;;;;;;;;;;1018793;29;20024;-82
2023/03/14 00:58:00;;;;;;;3.92;1.52;;;;;;;;;;1019099;29;20031;-82
2023/03/14 00:58:31;;;;;;;4.40;1.80;;;;;;;;;;1022709;29;20015;-81
2023/03/14 00:59:02;;;;;;;3.75;1.50;;;;;;;;;;1022566;29;20609;-80
2023/03/14 00:59:33;;;;;;;2.85;1.50;;;;;;;;;;1023113;29;20026;-80
2023/03/14 01:00:06;;;;;;;3.53;1.52;;;;;;;;;;1022925;29;20602;-80
2023/03/14 01:00:37;;;;;;;3.42;1.60;;;;;;;;;;1026186;28;20501;-82
2023/03/14 01:01:09;;;;;;;3.83;1.75;;;;;;;;;;1026704;28;20026;-82
2023/03/14 01:01:41;;;;;;;2.30;1.40;;;;;;;;;;1026231;28;20058;-82
2023/03/14 01:02:12;;;;;;;2.65;1.35;;;;;;;;;;1026254;28;20670;-82
2023/03/14 01:02:44;;;;;;;5.25;1.83;;;;;;;;;;1026504;28;20872;-82
2023/03/14 01:03:15;;;;;;;2.50;1.30;;;;;;;;;;1026147;28;20595;-82
2023/03/14 01:03:46;;;;;;;4.43;1.60;;;;;;;;;;1025888;28;20019;-82
2023/03/14 01:04:17;;;;;;;3.88;1.67;;;;;;;;;;1026440;28;20033;-80
2023/03/14 01:04:49;;;;;;;2.72;1.50;;;;;;;;;;1025705;28;20023;-82
2023/03/14 01:05:19;;;;;;;2.78;1.42;;;;;;;;;;1022536;29;20020;-81
2023/03/14 01:05:51;;;;;;;3.78;1.35;;;;;;;;;;1018251;29;20127;-80
2023/03/14 01:06:23;;;;;;;4.70;1.83;;;;;;;;;;1018954;29;20051;-81
2023/03/14 01:06:54;;;;;;;4.55;1.40;;;;;;;;;;1026198;28;20019;-82
2023/03/14 01:07:25;;;;;;;4.10;1.60;;;;;;;;;;1022518;28;20023;-81
2023/03/14 01:07:56;;;;;;;2.40;1.38;;;;;;;;;;1022876;29;20296;-81
2023/03/14 01:08:27;;;;;;;3.33;1.50;;;;;;;;;;1023267;28;20121;-83
2023/03/14 01:08:58;;;;;;;4.25;1.65;;;;;;;;;;1022608;28;20019;-81
2023/03/14 01:09:29;;;;;;;3.00;1.30;;;;;;;;;;1022848;29;20027;-80
2023/03/14 01:10:00;;;;;;;3.63;1.52;;;;;;;;;;1022990;29;20081;-82
2023/03/14 01:10:31;;;;;;;2.70;1.48;;;;;;;;;;1023112;28;20023;-82
2023/03/14 01:11:06;;;;;;;4.80;1.50;;;;;;;;;;1022824;29;20815;-81
2023/03/14 01:11:37;;;;;;;2.85;1.50;;;;;;;;;;1023172;29;20016;-81
2023/03/14 01:12:08;;;;;;;4.40;1.40;;;;;;;;;;1023361;28;20038;-81
2023/03/14 01:12:39;;;;;;;4.20;1.83;;;;;;;;;;1026329;28;20030;-80
2023/03/14 01:13:10;;;;;;;2.67;1.52;;;;;;;;;;1026371;28;20019;-82
2023/03/14 01:13:42;;;;;;;3.90;1.40;;;;;;;;;;1018651;29;20169;-80
2023/03/14 01:14:13;;;;;;;2.28;1.35;;;;;;;;;;1017022;29;20047;-80
2023/03/14 01:14:44;;;;;;;2.75;1.85;;;;;;;;;;1018872;29;20024;-80
2023/03/14 01:15:15;;;;;;;2.33;1.25;;;;;;;;;;1018809;29;20020;-80
2023/03/14 01:15:46;;;;;;;2.33;1.40;;;;;;;;;;1020336;28;20019;-80
2023/03/14 01:16:19;;;;;;;2.40;1.52;;;;;;;;;;1026327;28;20019;-81
2023/03/14 01:16:50;;;;;;;4.05;1.67;;;;;;;;;;1022705;28;20086;-79
2023/03/14 01:17:21;;;;;;;3.30;1.30;;;;;;;;;;1026973;28;20026;-79
2023/03/14 01:17:52;;;;;;;3.60;1.48;;;;;;;;;;1026843;28;20094;-81
2023/03/14 01:18:23;;;;;;;2.60;1.20;;;;;;;;;;1026314;28;20122;-80
2023/03/14 01:18:54;;;;;;;2.78;1.40;;;;;;;;;;1018957;28;20023;-80
2023/03/14 01:19:25;;;;;;;2.83;1.05;;;;;;;;;;1022030;29;20561;-81
2023/03/14 01:19:56;;;;;;;2.88;1.42;;;;;;;;;;1018737;29;20578;-81
2023/03/14 01:20:27;;;;;;;3.25;1.60;;;;;;;;;;1022715;28;20024;-81
2023/03/14 01:20:58;;;;;;;4.38;1.65;;;;;;;;;;1026183;28;20445;-81
2023/03/14 01:21:31;;;;;;;5.97;1.83;;;;;;;;;;1018210;29;20598;-82
2023/03/14 01:22:02;;;;;;;3.40;1.13;;;;;;;;;;1015173;29;20024;-81
2023/03/14 01:22:33;;;;;;;3.85;1.30;;;;;;;;;;1014805;29;20641;-81
2023/03/14 01:23:04;;;;;;;2.33;1.35;;;;;;;;;;1007167;29;20611;-81
2023/03/14 01:23:35;;;;;;;3.33;1.48;;;;;;;;;;1012832;29;20020;-82
2023/03/14 01:24:06;;;;;;;3.65;1.88;;;;;;;;;;1017710;29;20159;-81
2023/03/14 01:24:37;;;;;;;4.10;1.30;;;;;;;;;;1019346;29;20450;-81
2023/03/14 01:25:09;;;;;;;3.17;1.55;;;;;;;;;;1022555;29;20012;-81
2023/03/14 01:25:43;;;;;;;2.50;1.10;;;;;;;;;;1020255;29;20880;-82
2023/03/14 01:26:15;;;;;;;2.40;1.20;;;;;;;;;;1017580;29;20011;-82
2023/03/14 01:26:47;;;;;;;3.55;1.55;;;;;;;;;;1011486;29;20055;-82
2023/03/14 01:27:18;;;;;;;3.00;1.42;;;;;;;;;;1014974;29;20480;-82
2023/03/14 01:27:49;;;;;;;2.43;1.40;;;;;;;;;;1018507;29;20490;-81
2023/03/14 01:28:20;;;;;;;2.95;1.00;;;;;;;;;;1019406;29;20267;-82
2023/03/14 01:28:53;;;;;;;3.78;1.42;;;;;;;;;;1023348;28;20015;-82
2023/03/14 01:29:24;;;;;;;3.22;1.30;;;;;;;;;;1026519;28;20404;-83
2023/03/14 01:29:54;;;;;;;3.40;1.17;;;;;;;;;;1025980;28;20521;-82
2023/03/14 01:30:25;;;;;;;1.77;1.10;;;;;;;;;;1026658;28;20259;-82
2023/03/14 01:30:56;;;;;;;3.33;1.27;;;;;;;;;;1026267;28;20106;-81
2023/03/14 01:31:28;;;;;;;3.17;1.20;;;;;;;;;;1022108;28;20025;-82
2023/03/14 01:31:59;;;;;;;4.00;1.65;;;;;;;;;;1018420;29;20012;-81
2023/03/14 01:32:30;;;;;;;2.88;1.38;;;;;;;;;;1017791;29;20022;-81
2023/03/14 01:33:01;;;;;;;4.63;1.85;;;;;;;;;;1014349;29;20028;-82
2023/03/14 01:33:32;;;;;;;3.33;1.23;;;;;;;;;;1014967;29;20128;-83
2023/03/14 01:34:03;;;;;;;2.72;1.30;;;;;;;;;;1018449;29;20263;-82
2023/03/14 01:34:34;;;;;;;2.90;1.20;;;;;;;;;;1022123;28;20114;-82
2023/03/14 01:35:05;;;;;;;3.95;1.30;;;;;;;;;;1026289;28;20027;-82
2023/03/14 01:35:36;;;;;;;3.78;1.25;;;;;;;;;;1026272;28;20031;-82
2023/03/14 01:36:07;;;;;;;2.75;1.30;;;;;;;;;;1023328;28;20027;-81
2023/03/14 01:36:38;;;;;;;2.70;1.23;;;;;;;;;;1026152;28;20034;-80
2023/03/14 01:37:11;;;;;;;4.55;1.40;;;;;;;;;;1026409;28;20141;-82
2023/03/14 01:37:42;;;;;;;3.17;1.10;;;;;;;;;;1023515;28;20746;-81
2023/03/14 01:38:13;;;;;;;2.38;1.20;;;;;;;;;;1026066;28;20058;-80
2023/03/14 01:38:44;;;;;;;3.17;1.30;;;;;;;;;;1023370;28;20023;-81
2023/03/14 01:39:15;;;;;;;2.80;1.38;;;;;;;;;;1023397;28;20283;-81
2023/03/14 01:39:49;;;;;;;3.20;1.40;;;;;;;;;;1022190;28;20027;-81
2023/03/14 01:40:20;;;;;;;3.13;1.50;;;;;;;;;;1018841;29;20553;-81
2023/03/14 01:40:51;;;;;;;3.20;1.50;;;;;;;;;;1018705;29;20539;-80
2023/03/14 01:41:23;;;;;;;2.57;1.20;;;;;;;;;;1019196;29;20479;-81
2023/03/14 01:41:54;;;;;;;3.72;1.30;;;;;;;;;;1022535;29;20285;-81
2023/03/14 01:42:25;;;;;;;3.10;1.33;;;;;;;;;;1023421;29;20025;-82
2023/03/14 01:42:57;;;;;;;2.83;1.80;;;;;;;;;;1022084;28;20695;-83
2023/03/14 01:43:28;;;;;;;3.25;1.35;;;;;;;;;;1023447;29;20270;-81
2023/03/14 01:43:59;;;;;;;2.63;1.20;;;;;;;;;;1022769;29;20038;-81
2023/03/14 01:44:49;;;;;;;5.38;1.75;;;;;;;;;;1022621;28;20027;-81
2023/03/14 01:45:39;;;;;;;3.10;1.30;;;;;;;;;;1022862;29;20054;-82
2023/03/14 01:46:20;;;;;;;2.65;1.17;;;;;;;;;;1022621;29;20051;-81
2023/03/14 01:46:51;;;;;;;3.05;1.20;;;;;;;;;;1026651;28;20512;-81
2023/03/14 01:47:23;;;;;;;3.53;1.10;;;;;;;;;;1026905;28;20561;-82
2023/03/14 01:47:54;;;;;;;2.97;1.48;;;;;;;;;;1026759;28;20035;-82
2023/03/14 01:48:28;;;;;;;1.77;1.03;;;;;;;;;;1026645;28;20037;-82
2023/03/14 01:49:05;;;;;;;2.15;1.13;;;;;;;;;;1025859;28;20269;-82
2023/03/14 01:49:36;;;;;;;2.35;1.25;;;;;;;;;;1022720;29;20607;-83
2023/03/14 01:50:10;;;;;;;2.85;1.33;;;;;;;;;;1024666;28;20968;-82
2023/03/14 01:50:41;;;;;;;3.28;1.13;;;;;;;;;;1026868;28;20074;-83
2023/03/14 01:51:20;;;;;;;2.78;1.33;;;;;;;;;;1022668;28;20023;-82
2023/03/14 01:52:00;;;;;;;2.70;1.63;;;;;;;;;;1024712;28;20049;-83
2023/03/14 01:52:33;;;;;;;1.95;0.93;;;;;;;;;;1022623;29;20171;-82
2023/03/14 01:53:04;;;;;;;3.47;1.60;;;;;;;;;;1025136;28;20023;-82
2023/03/14 01:53:35;;;;;;;2.70;1.05;;;;;;;;;;1024888;28;20031;-82
2023/03/14 01:54:10;;;;;;;2.22;1.20;;;;;;;;;;1022830;29;20027;-83
2023/03/14 01:54:43;;;;;;;2.47;1.05;;;;;;;;;;1022222;28;20410;-83
2023/03/14 01:55:16;;;;;;;2.38;1.15;;;;;;;;;;1022434;29;20038;-83
2023/03/14 01:55:50;;;;;;;1.98;1.15;;;;;;;;;;1022767;29;20027;-82
2023/03/14 01:56:21;;;;;;;2.25;1.27;;;;;;;;;;1018966;29;20131;-82
2023/03/14 01:57:13;;;;;;;2.47;1.17;;;;;;;;;;1019034;29;20030;-82
2023/03/14 01:57:50;;;;;;;4.07;1.20;;;;;;;;;;1007800;29;21352;-83
2023/03/14 01:58:21;;;;;;;3.00;1.40;;;;;;;;;;1022226;29;20023;-82
2023/03/14 01:58:52;;;;;;;2.30;1.08;;;;;;;;;;1022842;29;20031;-82
2023/03/14 01:59:24;;;;;;;2.72;1.23;;;;;;;;;;1023703;28;20053;-82
2023/03/14 01:59:58;;;;;;;2.72;1.25;;;;;;;;;;1026521;28;20029;-82
2023/03/14 02:00:29;;;;;;;2.75;1.10;;;;;;;;;;1026274;28;20516;-82
2023/03/14 02:01:01;;;;;;;2.65;1.15;;;;;;;;;;1025903;28;20498;-82
2023/03/14 02:01:33;;;;;;;2.15;1.27;;;;;;;;;;1022739;29;20046;-81
2023/03/14 02:02:07;;;;;;;3.03;1.10;;;;;;;;;;1023290;28;20410;-83
2023/03/14 02:02:39;;;;;;;4.55;1.30;;;;;;;;;;1026945;28;20019;-82
2023/03/14 02:03:11;;;;;;;2.90;1.20;;;;;;;;;;1026572;28;20402;-82
2023/03/14 02:03:56;;;;;;;2.90;1.10;;;;;;;;;;1025225;28;20050;-81
2023/03/14 02:04:29;;;;;;;2.95;1.27;;;;;;;;;;1025863;28;20840;-82
2023/03/14 02:05:00;;;;;;;2.60;1.45;;;;;;;;;;1024301;28;20035;-81
2023/03/14 02:05:36;;;;;;;3.13;1.15;;;;;;;;;;1024138;28;20553;-81
2023/03/14 02:06:07;;;;;;;4.25;1.70;;;;;;;;;;1022236;29;20046;-82
2023/03/14 02:06:50;;;;;;;2.60;1.38;;;;;;;;;;1024027;28;20027;-81
2023/03/14 02:07:33;;;;;;;2.17;1.10;;;;;;;;;;1026684;28;20050;-80
2023/03/14 02:08:06;;;;;;;2.40;1.15;;;;;;;;;;1024778;28;20030;-81
2023/03/14 02:08:38;;;;;;;2.65;1.17;;;;;;;;;;1022843;29;20042;-82
2023/03/14 02:09:09;;;;;;;2.80;1.05;;;;;;;;;;1022618;29;20027;-81
2023/03/14 02:09:40;;;;;;;2.85;1.10;;;;;;;;;;1023297;28;20121;-82
2023/03/14 02:10:11;;;;;;;2.15;1.20;;;;;;;;;;1022374;29;20094;-81
2023/03/14 02:10:44;;;;;;;1.90;1.00;;;;;;;;;;1022880;28;20027;-82
2023/03/14 02:11:16;;;;;;;2.55;1.13;;;;;;;;;;1022729;29;20030;-83
2023/03/14 02:11:48;;;;;;;3.00;1.23;;;;;;;;;;1024141;28;20483;-83
2023/03/14 02:12:20;;;;;;;2.22;1.10;;;;;;;;;;1027386;28;20023;-83
2023/03/14 02:12:52;;;;;;;1.90;1.00;;;;;;;;;;1027593;28;20038;-83
2023/03/14 02:13:24;;;;;;;3.10;1.00;;;;;;;;;;1022394;29;20027;-83
2023/03/14 02:13:55;;;;;;;1.35;1.00;;;;;;;;;;1024602;28;20011;-82
2023/03/14 02:14:32;;;;;;;3.95;1.10;;;;;;;;;;1026930;28;20023;-82
2023/03/14 02:15:03;;;;;;;1.77;1.10;;;;;;;;;;1026694;28;20022;-83
2023/03/14 02:15:34;;;;;;;3.22;1.25;;;;;;;;;;1026938;28;20032;-83
2023/03/14 02:16:05;;;;;;;2.55;1.13;;;;;;;;;;1025773;28;20485;-83
2023/03/14 02:16:36;;;;;;;3.78;1.42;;;;;;;;;;1018422;29;20046;-83
2023/03/14 02:17:08;;;;;;;3.30;1.40;;;;;;;;;;1019052;29;20126;-83
2023/03/14 02:17:41;;;;;;;2.22;1.15;;;;;;;;;;1022438;28;20011;-83
2023/03/14 02:18:13;;;;;;;3.58;1.60;;;;;;;;;;1023194;29;20051;-83
2023/03/14 02:18:44;;;;;;;2.58;1.00;;;;;;;;;;1022193;29;20033;-83
2023/03/14 02:19:18;;;;;;;3.88;1.05;;;;;;;;;;1022154;28;20027;-84
2023/03/14 02:20:09;;;;;;;2.90;1.33;;;;;;;;;;1022554;29;20021;-84
2023/03/14 02:20:58;;;;;;;3.92;1.63;;;;;;;;;;1013258;29;21169;-83
2023/03/14 02:21:44;;;;;;;2.22;1.38;;;;;;;;;;1022400;29;20097;-84
2023/03/14 02:22:16;;;;;;;2.13;0.80;;;;;;;;;;1023177;28;20023;-83
2023/03/14 02:22:47;;;;;;;3.50;1.10;;;;;;;;;;1026198;28;20418;-82
2023/03/14 02:23:24;;;;;;;2.00;1.00;;;;;;;;;;1027100;28;20101;-83
2023/03/14 02:24:03;;;;;;;2.80;1.17;;;;;;;;;;1024828;28;20018;-83
2023/03/14 02:24:39;;;;;;;2.70;1.33;;;;;;;;;;1023108;29;20028;-84
2023/03/14 02:25:13;;;;;;;2.17;1.10;;;;;;;;;;1022290;29;20030;-83
2023/03/14 02:25:44;;;;;;;3.20;1.00;;;;;;;;;;1026382;28;20101;-82
2023/03/14 02:26:38;;;;;;;2.33;1.20;;;;;;;;;;1026422;28;20045;-83
2023/03/14 02:27:10;;;;;;;2.03;0.90;;;;;;;;;;1016961;29;20276;-84
2023/03/14 02:27:41;;;;;;;1.48;0.90;;;;;;;;;;1017832;29;20020;-84
2023/03/14 02:28:13;;;;;;;1.45;0.90;;;;;;;;;;1021722;29;20054;-83
2023/03/14 02:28:44;;;;;;;2.47;0.88;;;;;;;;;;1023368;28;20024;-84
2023/03/14 02:29:15;;;;;;;2.50;1.15;;;;;;;;;;1021285;28;20027;-84
2023/03/14 02:29:50;;;;;;;2.95;1.20;;;;;;;;;;1023017;28;20258;-84
2023/03/14 02:30:22;;;;;;;4.03;1.08;;;;;;;;;;1022886;29;20031;-83
2023/03/14 02:30:53;;;;;;;2.78;1.02;;;;;;;;;;1023093;28;20082;-84
2023/03/14 02:31:24;;;;;;;2.45;0.98;;;;;;;;;;1018884;29;20128;-83
2023/03/14 02:31:55;;;;;;;3.03;1.20;;;;;;;;;;1018714;29;20107;-83
2023/03/14 02:32:27;;;;;;;3.30;1.27;;;;;;;;;;1018598;29;20059;-84
2023/03/14 02:33:08;;;;;;;1.95;1.00;;;;;;;;;;1018885;29;20024;-84
2023/03/14 02:33:39;;;;;;;3.33;1.15;;;;;;;;;;1020576;29;20467;-84
2023/03/14 02:34:10;;;;;;;1.40;0.80;;;;;;;;;;1024957;28;20039;-84
2023/03/14 02:34:42;;;;;;;2.63;1.17;;;;;;;;;;1022483;29;20019;-85
2023/03/14 02:35:16;;;;;;;1.77;1.00;;;;;;;;;;1018795;29;20102;-84
2023/03/14 02:35:49;;;;;;;3.83;1.20;;;;;;;;;;1018900;29;20043;-83
2023/03/14 02:36:21;;;;;;;2.15;1.13;;;;;;;;;;1019485;29;20047;-83
2023/03/14 02:36:53;;;;;;;2.67;1.15;;;;;;;;;;1019619;29;20051;-83
2023/03/14 02:37:26;;;;;;;2.47;0.93;;;;;;;;;;1022468;29;20034;-83
2023/03/14 02:38:03;;;;;;;2.95;1.00;;;;;;;;;;1018506;29;20075;-83
2023/03/14 02:38:37;;;;;;;2.75;1.00;;;;;;;;;;1018288;29;20039;-84
2023/03/14 02:39:31;;;;;;;3.25;1.55;;;;;;;;;;1020601;29;20058;-85
2023/03/14 02:40:04;;;;;;;2.47;1.13;;;;;;;;;;1012734;29;20032;-84
2023/03/14 02:40:35;;;;;;;2.40;0.95;;;;;;;;;;1018111;29;20030;-84
2023/03/14 02:41:06;;;;;;;1.42;1.02;;;;;;;;;;1018529;29;20030;-84
2023/03/14 02:41:37;;;;;;;3.10;1.45;;;;;;;;;;1015200;29;20449;-83
2023/03/14 02:42:08;;;;;;;3.63;1.50;;;;;;;;;;1018732;29;20497;-84
2023/03/14 02:42:39;;;;;;;2.92;1.05;;;;;;;;;;1022041;28;20403;-84
2023/03/14 02:43:10;;;;;;;3.20;1.00;;;;;;;;;;1026316;28;20058;-83
2023/03/14 02:43:41;;;;;;;2.05;1.05;;;;;;;;;;1026181;28;20047;-84
2023/03/14 02:44:12;;;;;;;2.83;1.40;;;;;;;;;;1026412;28;20027;-83
2023/03/14 02:44:51;;;;;;;1.38;0.88;;;;;;;;;;1022970;28;20059;-83
2023/03/14 02:45:22;;;;;;;;;;;;;;;;;;1019194;29;20045;-84
2023/03/14 02:45:53;;;;;;;2.93;1.30;;;;;;;;;;1018009;29;19990;-83
2023/03/14 02:46:24;;;;;;;2.40;1.02;;;;;;;;;;1022263;28;20019;-82
2023/03/14 02:46:55;;;;;;;2.45;1.30;;;;;;;;;;1026630;28;20389;-83
2023/03/14 02:47:31;;;;;;;1.98;0.98;;;;;;;;;;1026211;28;20370;-82
2023/03/14 02:48:05;;;;;;;1.65;0.85;;;;;;;;;;1020209;29;20098;-81
2023/03/14 02:48:38;;;;;;;3.50;1.60;;;;;;;;;;1014869;29;20183;-84
2023/03/14 02:49:12;;;;;;;2.58;1.10;;;;;;;;;;1015992;29;20109;-83
2023/03/14 02:49:43;;;;;;;1.95;1.05;;;;;;;;;;1019893;29;20094;-83
2023/03/14 02:50:19;;;;;;;3.03;1.35;;;;;;;;;;1023363;28;20023;-83
2023/03/14 02:50:52;;;;;;;3.17;1.33;;;;;;;;;;1026523;28;20031;-83
2023/03/14 02:51:24;;;;;;;1.48;1.02;;;;;;;;;;1022254;28;20561;-83
2023/03/14 02:51:55;;;;;;;3.60;1.52;;;;;;;;;;1023030;29;20030;-82
2023/03/14 02:52:26;;;;;;;2.53;1.10;;;;;;;;;;1022551;29;20027;-83
2023/03/14 02:52:57;;;;;;;2.30;1.10;;;;;;;;;;1023229;28;20050;-82
2023/03/14 02:53:30;;;;;;;3.45;1.23;;;;;;;;;;1026055;28;20038;-83
2023/03/14 02:54:01;;;;;;;1.77;1.08;;;;;;;;;;1025588;28;20026;-82
2023/03/14 02:54:32;;;;;;;3.10;1.02;;;;;;;;;;1018664;29;20136;-82
2023/03/14 02:55:03;;;;;;;3.33;1.20;;;;;;;;;;1022328;29;20078;-82
2023/03/14 02:55:34;;;;;;;2.70;1.02;;;;;;;;;;1022926;28;20035;-83
2023/03/14 02:56:06;;;;;;;3.55;1.08;;;;;;;;;;1021954;29;20023;-82
2023/03/14 02:56:37;;;;;;;2.78;1.10;;;;;;;;;;1022051;28;20023;-83
2023/03/14 02:57:08;;;;;;;3.67;1.10;;;;;;;;;;1017793;29;20031;-82
2023/03/14 02:57:39;;;;;;;1.95;0.95;;;;;;;;;;1011220;29;20044;-83
2023/03/14 02:58:10;;;;;;;2.72;1.10;;;;;;;;;;1016221;29;20119;-83
2023/03/14 02:58:41;;;;;;;3.13;1.08;;;;;;;;;;1018626;29;20043;-81
2023/03/14 02:59:12;;;;;;;2.63;1.00;;;;;;;;;;1018654;29;20031;-82
2023/03/14 02:59:43;;;;;;;3.03;1.10;;;;;;;;;;1017227;29;20107;-82
2023/03/14 03:00:14;;;;;;;2.03;1.10;;;;;;;;;;1019060;29;20511;-82
2023/03/14 03:00:46;;;;;;;2.47;1.05;;;;;;;;;;1022384;29;20262;-82
2023/03/14 03:01:17;;;;;;;2.97;1.33;;;;;;;;;;1022728;28;20082;-82
2023/03/14 03:01:48;;;;;;;1.75;0.93;;;;;;;;;;1026399;28;20054;-82
2023/03/14 03:02:19;;;;;;;1.77;0.98;;;;;;;;;;1022285;28;20439;-83
2023/03/14 03:02:50;;;;;;;1.80;1.00;;;;;;;;;;1018755;29;20767;-82
2023/03/14 03:03:21;;;;;;;1.95;1.08;;;;;;;;;;1019547;29;20944;-83
2023/03/14 03:03:52;;;;;;;2.47;1.15;;;;;;;;;;1019274;29;20028;-81
2023/03/14 03:04:23;;;;;;;1.97;0.93;;;;;;;;;;1022981;29;20023;-81
2023/03/14 03:04:54;;;;;;;2.72;1.33;;;;;;;;;;1022940;28;20479;-81
2023/03/14 03:05:25;;;;;;;3.37;1.00;;;;;;;;;;1023596;28;20525;-81
2023/03/14 03:05:56;;;;;;;1.67;1.00;;;;;;;;;;1025275;28;20270;-83
2023/03/14 03:06:27;;;;;;;2.00;0.95;;;;;;;;;;1023215;29;20743;-82
2023/03/14 03:06:58;;;;;;;2.70;1.10;;;;;;;;;;1019636;28;20035;-82
2023/03/14 03:07:29;;;;;;;2.15;1.15;;;;;;;;;;1023342;29;20252;-82
2023/03/14 03:08:00;;;;;;;2.10;1.13;;;;;;;;;;1023176;29;20038;-82
2023/03/14 03:08:32;;;;;;;1.83;0.70;;;;;;;;;;1023125;29;20029;-82
2023/03/14 03:09:03;;;;;;;2.15;0.90;;;;;;;;;;1022842;28;20118;-83
2023/03/14 03:09:34;;;;;;;2.13;1.10;;;;;;;;;;1027229;28;20034;-82
2023/03/14 03:10:05;;;;;;;1.67;1.13;;;;;;;;;;1022935;29;20498;-82
2023/03/14 03:10:36;;;;;;;3.83;1.10;;;;;;;;;;1017936;29;20028;-81
2023/03/14 03:11:07;;;;;;;1.65;0.80;;;;;;;;;;1016275;29;20047;-82
2023/03/14 03:11:38;;;;;;;2.03;1.10;;;;;;;;;;1018652;29;20039;-82
2023/03/14 03:12:09;;;;;;;1.80;0.73;;;;;;;;;;1022325;29;20057;-82
2023/03/14 03:12:40;;;;;;;3.05;0.90;;;;;;;;;;1026852;28;20453;-82
2023/03/14 03:13:11;;;;;;;2.83;1.23;;;;;;;;;;1022821;29;20035;-81